sensor_id;sensor_type;location;lat;lon;timestamp;P1;durP1;ratioP1;P2;durP2;ratioP2
78778;SDS011;68121;52.404;5.318;2023-06-05T00:01:27;7.10;;;3.70;;
78778;SDS011;68121;52.404;5.318;2023-06-05T00:03:53;8.90;;;3.70;;
78778;SDS011;68121;52.404;5.318;2023-06-05T00:06:19;5.53;;;2.85;;
78778;SDS011;68121;52.404;5.318;2023-06-05T00:08:45;5.63;;;3.33;;
78778;SDS011;68121;52.404;5.318;2023-06-05T00:11:11;7.85;;;3.42;;
78778;SDS011;68121;52.404;5.318;2023-06-05T00:13:38;8.15;;;3.80;;
78778;SDS011;68121;52.404;5.318;2023-06-05T00:16:04;5.32;;;3.20;;
78778;SDS011;68121;52.404;5.318;2023-06-05T00:18:30;4.90;;;3.15;;
78778;SDS011;68121;52.404;5.318;2023-06-05T00:20:57;4.90;;;3.67;;
78778;SDS011;68121;52.404;5.318;2023-06-05T00:23:23;9.43;;;3.65;;
78778;SDS011;68121;52.404;5.318;2023-06-05T00:25:49;7.75;;;3.58;;
78778;SDS011;68121;52.404;5.318;2023-06-05T00:28:15;9.20;;;3.80;;
78778;SDS011;68121;52.404;5.318;2023-06-05T00:30:41;7.20;;;4.00;;
78778;SDS011;68121;52.404;5.318;2023-06-05T00:33:07;5.82;;;3.40;;
78778;SDS011;68121;52.404;5.318;2023-06-05T00:35:33;6.55;;;3.55;;
78778;SDS011;68121;52.404;5.318;2023-06-05T00:37:59;8.32;;;3.70;;
78778;SDS011;68121;52.404;5.318;2023-06-05T00:40:25;7.38;;;3.92;;
78778;SDS011;68121;52.404;5.318;2023-06-05T00:42:51;7.43;;;3.20;;
78778;SDS011;68121;52.404;5.318;2023-06-05T00:45:17;6.00;;;3.80;;
78778;SDS011;68121;52.404;5.318;2023-06-05T00:47:44;7.85;;;3.65;;
78778;SDS011;68121;52.404;5.318;2023-06-05T00:50:10;6.10;;;3.83;;
78778;SDS011;68121;52.404;5.318;2023-06-05T00:52:37;6.38;;;3.47;;
78778;SDS011;68121;52.404;5.318;2023-06-05T00:55:05;5.55;;;3.38;;
78778;SDS011;68121;52.404;5.318;2023-06-05T00:57:32;6.22;;;3.65;;
78778;SDS011;68121;52.404;5.318;2023-06-05T01:00:00;8.10;;;3.70;;
78778;SDS011;68121;52.404;5.318;2023-06-05T01:02:27;9.57;;;4.18;;
78778;SDS011;68121;52.404;5.318;2023-06-05T01:04:54;8.13;;;3.88;;
78778;SDS011;68121;52.404;5.318;2023-06-05T01:07:22;5.93;;;3.45;;
78778;SDS011;68121;52.404;5.318;2023-06-05T01:09:48;7.18;;;3.60;;
78778;SDS011;68121;52.404;5.318;2023-06-05T01:12:19;7.45;;;4.00;;
78778;SDS011;68121;52.404;5.318;2023-06-05T01:14:51;6.15;;;3.30;;
78778;SDS011;68121;52.404;5.318;2023-06-05T01:17:21;7.55;;;3.63;;
78778;SDS011;68121;52.404;5.318;2023-06-05T01:19:49;8.80;;;3.40;;
78778;SDS011;68121;52.404;5.318;2023-06-05T01:22:16;10.93;;;3.88;;
78778;SDS011;68121;52.404;5.318;2023-06-05T01:24:42;6.22;;;3.88;;
78778;SDS011;68121;52.404;5.318;2023-06-05T01:27:15;7.43;;;3.72;;
78778;SDS011;68121;52.404;5.318;2023-06-05T01:30:10;17.17;;;4.25;;
78778;SDS011;68121;52.404;5.318;2023-06-05T01:32:54;8.52;;;4.05;;
78778;SDS011;68121;52.404;5.318;2023-06-05T01:35:38;8.25;;;3.50;;
78778;SDS011;68121;52.404;5.318;2023-06-05T01:38:06;7.20;;;3.70;;
78778;SDS011;68121;52.404;5.318;2023-06-05T01:40:36;7.07;;;4.03;;
78778;SDS011;68121;52.404;5.318;2023-06-05T01:43:04;7.60;;;3.88;;
78778;SDS011;68121;52.404;5.318;2023-06-05T01:45:32;8.63;;;4.28;;
78778;SDS011;68121;52.404;5.318;2023-06-05T01:48:02;6.03;;;3.95;;
78778;SDS011;68121;52.404;5.318;2023-06-05T01:50:32;8.00;;;4.50;;
78778;SDS011;68121;52.404;5.318;2023-06-05T01:53:01;8.65;;;4.60;;
78778;SDS011;68121;52.404;5.318;2023-06-05T01:55:27;7.82;;;3.40;;
78778;SDS011;68121;52.404;5.318;2023-06-05T01:57:54;7.03;;;3.83;;
78778;SDS011;68121;52.404;5.318;2023-06-05T02:00:20;6.45;;;3.80;;
78778;SDS011;68121;52.404;5.318;2023-06-05T02:02:47;7.85;;;3.60;;
78778;SDS011;68121;52.404;5.318;2023-06-05T02:05:14;6.78;;;4.07;;
78778;SDS011;68121;52.404;5.318;2023-06-05T02:07:46;7.80;;;4.18;;
78778;SDS011;68121;52.404;5.318;2023-06-05T02:10:14;7.28;;;3.80;;
78778;SDS011;68121;52.404;5.318;2023-06-05T02:12:44;8.00;;;4.85;;
78778;SDS011;68121;52.404;5.318;2023-06-05T02:15:10;8.52;;;4.00;;
78778;SDS011;68121;52.404;5.318;2023-06-05T02:17:41;10.10;;;4.80;;
78778;SDS011;68121;52.404;5.318;2023-06-05T02:20:16;7.15;;;4.25;;
78778;SDS011;68121;52.404;5.318;2023-06-05T02:22:42;8.00;;;4.10;;
78778;SDS011;68121;52.404;5.318;2023-06-05T02:25:09;7.22;;;4.30;;
78778;SDS011;68121;52.404;5.318;2023-06-05T02:27:36;8.32;;;4.43;;
78778;SDS011;68121;52.404;5.318;2023-06-05T02:30:03;7.25;;;4.07;;
78778;SDS011;68121;52.404;5.318;2023-06-05T02:32:29;7.97;;;4.57;;
78778;SDS011;68121;52.404;5.318;2023-06-05T02:34:57;8.27;;;4.35;;
78778;SDS011;68121;52.404;5.318;2023-06-05T02:37:24;9.25;;;4.63;;
78778;SDS011;68121;52.404;5.318;2023-06-05T02:39:50;9.30;;;4.07;;
78778;SDS011;68121;52.404;5.318;2023-06-05T02:42:16;11.13;;;4.43;;
78778;SDS011;68121;52.404;5.318;2023-06-05T02:44:44;7.85;;;4.25;;
78778;SDS011;68121;52.404;5.318;2023-06-05T02:47:11;8.57;;;4.30;;
78778;SDS011;68121;52.404;5.318;2023-06-05T02:49:38;9.60;;;4.15;;
78778;SDS011;68121;52.404;5.318;2023-06-05T02:52:04;9.68;;;4.57;;
78778;SDS011;68121;52.404;5.318;2023-06-05T02:54:30;8.05;;;3.90;;
78778;SDS011;68121;52.404;5.318;2023-06-05T02:56:56;7.85;;;4.38;;
78778;SDS011;68121;52.404;5.318;2023-06-05T02:59:25;9.20;;;4.50;;
78778;SDS011;68121;52.404;5.318;2023-06-05T03:01:53;8.35;;;3.90;;
78778;SDS011;68121;52.404;5.318;2023-06-05T03:04:19;7.90;;;4.18;;
78778;SDS011;68121;52.404;5.318;2023-06-05T03:06:50;6.43;;;3.72;;
78778;SDS011;68121;52.404;5.318;2023-06-05T03:09:18;8.48;;;4.13;;
78778;SDS011;68121;52.404;5.318;2023-06-05T03:11:44;8.75;;;4.22;;
78778;SDS011;68121;52.404;5.318;2023-06-05T03:14:11;7.63;;;3.97;;
78778;SDS011;68121;52.404;5.318;2023-06-05T03:16:37;6.60;;;4.20;;
78778;SDS011;68121;52.404;5.318;2023-06-05T03:19:07;9.40;;;4.57;;
78778;SDS011;68121;52.404;5.318;2023-06-05T03:21:35;10.43;;;4.55;;
78778;SDS011;68121;52.404;5.318;2023-06-05T03:24:01;7.93;;;4.82;;
78778;SDS011;68121;52.404;5.318;2023-06-05T03:26:27;9.23;;;3.85;;
78778;SDS011;68121;52.404;5.318;2023-06-05T03:28:54;10.10;;;4.90;;
78778;SDS011;68121;52.404;5.318;2023-06-05T03:31:20;8.57;;;4.05;;
78778;SDS011;68121;52.404;5.318;2023-06-05T03:33:46;8.27;;;4.18;;
78778;SDS011;68121;52.404;5.318;2023-06-05T03:36:12;8.15;;;4.45;;
78778;SDS011;68121;52.404;5.318;2023-06-05T03:38:43;7.72;;;4.03;;
78778;SDS011;68121;52.404;5.318;2023-06-05T03:41:09;9.73;;;4.38;;
78778;SDS011;68121;52.404;5.318;2023-06-05T03:43:36;8.02;;;4.32;;
78778;SDS011;68121;52.404;5.318;2023-06-05T03:46:03;11.68;;;5.22;;
78778;SDS011;68121;52.404;5.318;2023-06-05T03:48:29;9.75;;;4.45;;
78778;SDS011;68121;52.404;5.318;2023-06-05T03:50:55;13.73;;;5.85;;
78778;SDS011;68121;52.404;5.318;2023-06-05T03:53:23;9.82;;;5.07;;
78778;SDS011;68121;52.404;5.318;2023-06-05T03:55:49;10.07;;;5.68;;
78778;SDS011;68121;52.404;5.318;2023-06-05T03:58:18;10.70;;;5.18;;
78778;SDS011;68121;52.404;5.318;2023-06-05T04:00:46;9.45;;;4.88;;
78778;SDS011;68121;52.404;5.318;2023-06-05T04:03:14;10.55;;;4.82;;
78778;SDS011;68121;52.404;5.318;2023-06-05T04:05:41;8.98;;;3.85;;
78778;SDS011;68121;52.404;5.318;2023-06-05T04:08:08;7.63;;;4.15;;
78778;SDS011;68121;52.404;5.318;2023-06-05T04:10:35;11.73;;;4.57;;
78778;SDS011;68121;52.404;5.318;2023-06-05T04:13:02;8.80;;;4.40;;
78778;SDS011;68121;52.404;5.318;2023-06-05T04:15:28;8.07;;;4.47;;
78778;SDS011;68121;52.404;5.318;2023-06-05T04:17:54;6.25;;;3.70;;
78778;SDS011;68121;52.404;5.318;2023-06-05T04:20:21;13.52;;;5.63;;
78778;SDS011;68121;52.404;5.318;2023-06-05T04:22:47;8.23;;;5.25;;
78778;SDS011;68121;52.404;5.318;2023-06-05T04:25:14;8.60;;;4.63;;
78778;SDS011;68121;52.404;5.318;2023-06-05T04:27:43;9.50;;;4.75;;
78778;SDS011;68121;52.404;5.318;2023-06-05T04:30:11;9.05;;;4.85;;
78778;SDS011;68121;52.404;5.318;2023-06-05T04:32:38;8.52;;;4.78;;
78778;SDS011;68121;52.404;5.318;2023-06-05T04:35:05;9.13;;;4.88;;
78778;SDS011;68121;52.404;5.318;2023-06-05T04:37:33;12.05;;;5.20;;
78778;SDS011;68121;52.404;5.318;2023-06-05T04:40:01;10.23;;;5.45;;
78778;SDS011;68121;52.404;5.318;2023-06-05T04:42:34;11.35;;;4.78;;
78778;SDS011;68121;52.404;5.318;2023-06-05T04:45:03;8.75;;;4.93;;
78778;SDS011;68121;52.404;5.318;2023-06-05T04:47:31;9.52;;;4.72;;
78778;SDS011;68121;52.404;5.318;2023-06-05T04:49:58;10.05;;;4.82;;
78778;SDS011;68121;52.404;5.318;2023-06-05T04:52:25;7.35;;;4.63;;
78778;SDS011;68121;52.404;5.318;2023-06-05T04:54:52;6.97;;;3.90;;
78778;SDS011;68121;52.404;5.318;2023-06-05T04:57:18;12.68;;;4.70;;
78778;SDS011;68121;52.404;5.318;2023-06-05T04:59:44;9.60;;;5.00;;
78778;SDS011;68121;52.404;5.318;2023-06-05T05:02:11;10.10;;;4.70;;
78778;SDS011;68121;52.404;5.318;2023-06-05T05:04:38;7.30;;;4.70;;
78778;SDS011;68121;52.404;5.318;2023-06-05T05:07:04;7.38;;;4.30;;
78778;SDS011;68121;52.404;5.318;2023-06-05T05:09:30;7.50;;;4.40;;
78778;SDS011;68121;52.404;5.318;2023-06-05T05:11:57;7.28;;;4.43;;
78778;SDS011;68121;52.404;5.318;2023-06-05T05:14:24;8.38;;;4.68;;
78778;SDS011;68121;52.404;5.318;2023-06-05T05:16:53;12.80;;;5.43;;
78778;SDS011;68121;52.404;5.318;2023-06-05T05:19:20;8.70;;;4.35;;
78778;SDS011;68121;52.404;5.318;2023-06-05T05:21:50;9.15;;;4.68;;
78778;SDS011;68121;52.404;5.318;2023-06-05T05:24:16;9.40;;;5.18;;
78778;SDS011;68121;52.404;5.318;2023-06-05T05:26:42;8.60;;;5.05;;
78778;SDS011;68121;52.404;5.318;2023-06-05T05:29:08;9.68;;;4.82;;
78778;SDS011;68121;52.404;5.318;2023-06-05T05:31:34;9.95;;;3.97;;
78778;SDS011;68121;52.404;5.318;2023-06-05T05:34:00;8.63;;;3.78;;
78778;SDS011;68121;52.404;5.318;2023-06-05T05:36:26;7.68;;;3.88;;
78778;SDS011;68121;52.404;5.318;2023-06-05T05:38:53;9.02;;;4.10;;
78778;SDS011;68121;52.404;5.318;2023-06-05T05:41:19;6.70;;;4.00;;
78778;SDS011;68121;52.404;5.318;2023-06-05T05:43:46;8.20;;;3.97;;
78778;SDS011;68121;52.404;5.318;2023-06-05T05:46:12;5.97;;;3.30;;
78778;SDS011;68121;52.404;5.318;2023-06-05T05:48:39;6.40;;;3.60;;
78778;SDS011;68121;52.404;5.318;2023-06-05T05:51:05;9.45;;;3.83;;
78778;SDS011;68121;52.404;5.318;2023-06-05T05:53:32;5.80;;;3.50;;
78778;SDS011;68121;52.404;5.318;2023-06-05T05:55:58;8.73;;;3.83;;
78778;SDS011;68121;52.404;5.318;2023-06-05T05:58:25;7.55;;;3.60;;
78778;SDS011;68121;52.404;5.318;2023-06-05T06:00:51;7.28;;;3.50;;
78778;SDS011;68121;52.404;5.318;2023-06-05T06:03:17;8.93;;;3.65;;
78778;SDS011;68121;52.404;5.318;2023-06-05T06:05:44;8.65;;;3.97;;
78778;SDS011;68121;52.404;5.318;2023-06-05T06:08:10;5.90;;;3.10;;
78778;SDS011;68121;52.404;5.318;2023-06-05T06:10:37;6.80;;;2.78;;
78778;SDS011;68121;52.404;5.318;2023-06-05T06:13:04;6.75;;;3.28;;
78778;SDS011;68121;52.404;5.318;2023-06-05T06:15:31;4.93;;;2.60;;
78778;SDS011;68121;52.404;5.318;2023-06-05T06:17:57;4.47;;;2.60;;
78778;SDS011;68121;52.404;5.318;2023-06-05T06:20:23;4.95;;;2.90;;
78778;SDS011;68121;52.404;5.318;2023-06-05T06:22:50;5.90;;;2.63;;
78778;SDS011;68121;52.404;5.318;2023-06-05T06:25:17;4.55;;;2.60;;
78778;SDS011;68121;52.404;5.318;2023-06-05T06:27:47;4.65;;;2.60;;
78778;SDS011;68121;52.404;5.318;2023-06-05T06:30:14;5.97;;;2.38;;
78778;SDS011;68121;52.404;5.318;2023-06-05T06:32:40;4.43;;;2.55;;
78778;SDS011;68121;52.404;5.318;2023-06-05T06:35:07;2.88;;;1.95;;
78778;SDS011;68121;52.404;5.318;2023-06-05T06:37:33;4.38;;;2.28;;
78778;SDS011;68121;52.404;5.318;2023-06-05T06:39:59;4.22;;;2.30;;
78778;SDS011;68121;52.404;5.318;2023-06-05T06:42:25;4.13;;;2.20;;
78778;SDS011;68121;52.404;5.318;2023-06-05T06:44:54;5.35;;;2.40;;
78778;SDS011;68121;52.404;5.318;2023-06-05T06:47:24;3.83;;;2.17;;
78778;SDS011;68121;52.404;5.318;2023-06-05T06:49:50;3.88;;;2.35;;
78778;SDS011;68121;52.404;5.318;2023-06-05T06:52:17;4.57;;;2.85;;
78778;SDS011;68121;52.404;5.318;2023-06-05T06:54:46;4.93;;;2.33;;
78778;SDS011;68121;52.404;5.318;2023-06-05T06:57:12;4.22;;;2.88;;
78778;SDS011;68121;52.404;5.318;2023-06-05T06:59:38;3.95;;;2.45;;
78778;SDS011;68121;52.404;5.318;2023-06-05T07:02:08;5.22;;;3.08;;
78778;SDS011;68121;52.404;5.318;2023-06-05T07:04:42;6.88;;;3.33;;
78778;SDS011;68121;52.404;5.318;2023-06-05T07:07:09;7.43;;;3.70;;
78778;SDS011;68121;52.404;5.318;2023-06-05T07:09:40;5.78;;;3.30;;
78778;SDS011;68121;52.404;5.318;2023-06-05T07:12:10;5.88;;;3.22;;
78778;SDS011;68121;52.404;5.318;2023-06-05T07:14:37;5.03;;;3.50;;
78778;SDS011;68121;52.404;5.318;2023-06-05T07:17:04;5.95;;;3.10;;
78778;SDS011;68121;52.404;5.318;2023-06-05T07:19:30;5.78;;;3.38;;
78778;SDS011;68121;52.404;5.318;2023-06-05T07:21:57;9.05;;;4.05;;
78778;SDS011;68121;52.404;5.318;2023-06-05T07:24:25;7.78;;;4.75;;
78778;SDS011;68121;52.404;5.318;2023-06-05T07:26:55;8.90;;;4.47;;
78778;SDS011;68121;52.404;5.318;2023-06-05T07:29:23;7.70;;;3.70;;
78778;SDS011;68121;52.404;5.318;2023-06-05T07:31:50;6.65;;;3.95;;
78778;SDS011;68121;52.404;5.318;2023-06-05T07:34:18;6.55;;;3.40;;
78778;SDS011;68121;52.404;5.318;2023-06-05T07:36:45;5.85;;;3.45;;
78778;SDS011;68121;52.404;5.318;2023-06-05T07:39:17;5.75;;;3.22;;
78778;SDS011;68121;52.404;5.318;2023-06-05T07:41:47;7.32;;;3.35;;
78778;SDS011;68121;52.404;5.318;2023-06-05T07:44:15;6.63;;;4.00;;
78778;SDS011;68121;52.404;5.318;2023-06-05T07:46:42;6.75;;;3.10;;
78778;SDS011;68121;52.404;5.318;2023-06-05T07:49:09;6.25;;;3.40;;
78778;SDS011;68121;52.404;5.318;2023-06-05T07:51:35;4.95;;;3.30;;
78778;SDS011;68121;52.404;5.318;2023-06-05T07:54:11;5.10;;;3.03;;
78778;SDS011;68121;52.404;5.318;2023-06-05T07:56:38;6.22;;;3.75;;
78778;SDS011;68121;52.404;5.318;2023-06-05T07:59:05;5.00;;;3.10;;
78778;SDS011;68121;52.404;5.318;2023-06-05T08:01:33;5.18;;;2.83;;
78778;SDS011;68121;52.404;5.318;2023-06-05T08:04:04;6.68;;;3.22;;
78778;SDS011;68121;52.404;5.318;2023-06-05T08:06:30;5.80;;;3.20;;
78778;SDS011;68121;52.404;5.318;2023-06-05T08:09:00;5.15;;;3.00;;
78778;SDS011;68121;52.404;5.318;2023-06-05T08:11:27;5.78;;;2.97;;
78778;SDS011;68121;52.404;5.318;2023-06-05T08:13:56;5.68;;;3.00;;
78778;SDS011;68121;52.404;5.318;2023-06-05T08:16:22;5.85;;;2.78;;
78778;SDS011;68121;52.404;5.318;2023-06-05T08:18:48;3.90;;;2.60;;
78778;SDS011;68121;52.404;5.318;2023-06-05T08:21:15;4.97;;;3.17;;
78778;SDS011;68121;52.404;5.318;2023-06-05T08:23:41;5.50;;;3.20;;
78778;SDS011;68121;52.404;5.318;2023-06-05T08:26:07;7.10;;;3.55;;
78778;SDS011;68121;52.404;5.318;2023-06-05T08:28:39;4.18;;;3.05;;
78778;SDS011;68121;52.404;5.318;2023-06-05T08:31:09;3.67;;;2.95;;
78778;SDS011;68121;52.404;5.318;2023-06-05T08:33:36;5.20;;;2.67;;
78778;SDS011;68121;52.404;5.318;2023-06-05T08:36:03;5.53;;;3.30;;
78778;SDS011;68121;52.404;5.318;2023-06-05T08:38:31;7.03;;;2.92;;
78778;SDS011;68121;52.404;5.318;2023-06-05T08:41:02;6.63;;;3.42;;
78778;SDS011;68121;52.404;5.318;2023-06-05T08:43:31;5.35;;;2.92;;
78778;SDS011;68121;52.404;5.318;2023-06-05T08:45:57;5.47;;;3.25;;
78778;SDS011;68121;52.404;5.318;2023-06-05T08:48:26;4.78;;;2.95;;
78778;SDS011;68121;52.404;5.318;2023-06-05T08:50:55;6.35;;;3.10;;
78778;SDS011;68121;52.404;5.318;2023-06-05T08:53:22;7.85;;;2.63;;
78778;SDS011;68121;52.404;5.318;2023-06-05T08:55:53;4.40;;;2.90;;
78778;SDS011;68121;52.404;5.318;2023-06-05T08:58:21;4.30;;;2.58;;
78778;SDS011;68121;52.404;5.318;2023-06-05T09:00:48;4.78;;;2.75;;
78778;SDS011;68121;52.404;5.318;2023-06-05T09:03:15;5.30;;;3.40;;
78778;SDS011;68121;52.404;5.318;2023-06-05T09:05:43;5.78;;;2.90;;
78778;SDS011;68121;52.404;5.318;2023-06-05T09:08:09;5.07;;;3.00;;
78778;SDS011;68121;52.404;5.318;2023-06-05T09:10:36;4.25;;;3.05;;
78778;SDS011;68121;52.404;5.318;2023-06-05T09:13:03;5.43;;;2.90;;
78778;SDS011;68121;52.404;5.318;2023-06-05T09:15:31;4.60;;;3.08;;
78778;SDS011;68121;52.404;5.318;2023-06-05T09:18:02;3.67;;;2.47;;
78778;SDS011;68121;52.404;5.318;2023-06-05T09:20:37;5.28;;;2.88;;
78778;SDS011;68121;52.404;5.318;2023-06-05T09:23:04;3.22;;;2.13;;
78778;SDS011;68121;52.404;5.318;2023-06-05T09:25:53;3.78;;;2.15;;
78778;SDS011;68121;52.404;5.318;2023-06-05T09:31:03;3.65;;;2.10;;
78778;SDS011;68121;52.404;5.318;2023-06-05T09:33:30;4.95;;;2.65;;
78778;SDS011;68121;52.404;5.318;2023-06-05T09:38:36;5.72;;;2.80;;
78778;SDS011;68121;52.404;5.318;2023-06-05T09:41:08;3.95;;;2.40;;
78778;SDS011;68121;52.404;5.318;2023-06-05T09:43:36;3.60;;;2.25;;
78778;SDS011;68121;52.404;5.318;2023-06-05T09:46:13;4.43;;;2.30;;
78778;SDS011;68121;52.404;5.318;2023-06-05T09:48:40;5.18;;;2.47;;
78778;SDS011;68121;52.404;5.318;2023-06-05T09:51:10;5.20;;;2.47;;
78778;SDS011;68121;52.404;5.318;2023-06-05T09:53:44;3.05;;;1.95;;
78778;SDS011;68121;52.404;5.318;2023-06-05T09:56:12;5.28;;;2.05;;
78778;SDS011;68121;52.404;5.318;2023-06-05T09:58:41;4.07;;;1.85;;
78778;SDS011;68121;52.404;5.318;2023-06-05T10:01:12;5.32;;;2.05;;
78778;SDS011;68121;52.404;5.318;2023-06-05T10:03:40;3.30;;;2.20;;
78778;SDS011;68121;52.404;5.318;2023-06-05T10:06:09;3.42;;;2.05;;
78778;SDS011;68121;52.404;5.318;2023-06-05T10:08:36;7.07;;;2.67;;
78778;SDS011;68121;52.404;5.318;2023-06-05T10:11:03;3.88;;;2.05;;
78778;SDS011;68121;52.404;5.318;2023-06-05T10:13:30;2.58;;;1.95;;
78778;SDS011;68121;52.404;5.318;2023-06-05T10:15:58;3.92;;;2.53;;
78778;SDS011;68121;52.404;5.318;2023-06-05T10:18:24;3.60;;;1.98;;
78778;SDS011;68121;52.404;5.318;2023-06-05T10:20:51;3.95;;;2.10;;
78778;SDS011;68121;52.404;5.318;2023-06-05T10:23:18;3.92;;;2.50;;
78778;SDS011;68121;52.404;5.318;2023-06-05T10:25:46;3.67;;;1.92;;
78778;SDS011;68121;52.404;5.318;2023-06-05T10:28:17;4.20;;;2.33;;
78778;SDS011;68121;52.404;5.318;2023-06-05T10:36:17;3.50;;;2.10;;
78778;SDS011;68121;52.404;5.318;2023-06-05T10:39:10;3.05;;;2.17;;
78778;SDS011;68121;52.404;5.318;2023-06-05T10:41:37;3.72;;;1.95;;
78778;SDS011;68121;52.404;5.318;2023-06-05T10:44:05;4.40;;;2.08;;
78778;SDS011;68121;52.404;5.318;2023-06-05T10:46:31;3.55;;;2.17;;
78778;SDS011;68121;52.404;5.318;2023-06-05T10:54:05;6.35;;;2.65;;
78778;SDS011;68121;52.404;5.318;2023-06-05T10:59:24;5.50;;;2.92;;
78778;SDS011;68121;52.404;5.318;2023-06-05T11:07:16;7.55;;;2.83;;
78778;SDS011;68121;52.404;5.318;2023-06-05T11:15:03;5.90;;;3.47;;
78778;SDS011;68121;52.404;5.318;2023-06-05T11:17:41;6.57;;;3.22;;
78778;SDS011;68121;52.404;5.318;2023-06-05T11:23:06;5.97;;;2.88;;
78778;SDS011;68121;52.404;5.318;2023-06-05T11:25:32;4.88;;;2.83;;
78778;SDS011;68121;52.404;5.318;2023-06-05T11:28:00;4.90;;;3.05;;
78778;SDS011;68121;52.404;5.318;2023-06-05T11:30:30;5.57;;;3.13;;
78778;SDS011;68121;52.404;5.318;2023-06-05T11:33:14;6.50;;;3.60;;
78778;SDS011;68121;52.404;5.318;2023-06-05T11:35:43;5.38;;;3.47;;
78778;SDS011;68121;52.404;5.318;2023-06-05T11:40:44;4.25;;;2.70;;
78778;SDS011;68121;52.404;5.318;2023-06-05T11:43:12;5.00;;;2.97;;
78778;SDS011;68121;52.404;5.318;2023-06-05T11:45:39;5.03;;;2.95;;
78778;SDS011;68121;52.404;5.318;2023-06-05T11:48:08;4.50;;;2.63;;
78778;SDS011;68121;52.404;5.318;2023-06-05T11:50:35;5.32;;;3.20;;
78778;SDS011;68121;52.404;5.318;2023-06-05T11:53:06;5.75;;;3.10;;
78778;SDS011;68121;52.404;5.318;2023-06-05T11:55:37;4.57;;;2.67;;
78778;SDS011;68121;52.404;5.318;2023-06-05T11:58:28;4.70;;;2.90;;
78778;SDS011;68121;52.404;5.318;2023-06-05T12:01:14;5.20;;;2.63;;
78778;SDS011;68121;52.404;5.318;2023-06-05T12:03:48;5.18;;;3.05;;
78778;SDS011;68121;52.404;5.318;2023-06-05T12:06:26;4.72;;;2.88;;
78778;SDS011;68121;52.404;5.318;2023-06-05T12:08:56;4.82;;;2.70;;
78778;SDS011;68121;52.404;5.318;2023-06-05T12:11:36;4.45;;;2.90;;
78778;SDS011;68121;52.404;5.318;2023-06-05T12:14:03;8.38;;;3.05;;
78778;SDS011;68121;52.404;5.318;2023-06-05T12:16:36;5.25;;;3.13;;
78778;SDS011;68121;52.404;5.318;2023-06-05T12:19:18;5.78;;;2.88;;
78778;SDS011;68121;52.404;5.318;2023-06-05T12:21:45;4.68;;;2.95;;
78778;SDS011;68121;52.404;5.318;2023-06-05T12:24:12;5.15;;;2.92;;
78778;SDS011;68121;52.404;5.318;2023-06-05T12:26:50;7.13;;;3.15;;
78778;SDS011;68121;52.404;5.318;2023-06-05T12:29:19;7.13;;;3.00;;
78778;SDS011;68121;52.404;5.318;2023-06-05T12:31:47;6.00;;;3.35;;
78778;SDS011;68121;52.404;5.318;2023-06-05T12:34:14;5.22;;;3.15;;
78778;SDS011;68121;52.404;5.318;2023-06-05T12:36:41;6.43;;;3.20;;
78778;SDS011;68121;52.404;5.318;2023-06-05T12:39:12;6.13;;;3.22;;
78778;SDS011;68121;52.404;5.318;2023-06-05T12:41:39;5.20;;;3.38;;
78778;SDS011;68121;52.404;5.318;2023-06-05T12:44:06;5.60;;;3.45;;
78778;SDS011;68121;52.404;5.318;2023-06-05T12:46:34;5.05;;;3.10;;
78778;SDS011;68121;52.404;5.318;2023-06-05T12:49:01;5.97;;;2.92;;
78778;SDS011;68121;52.404;5.318;2023-06-05T12:51:28;5.68;;;3.33;;
78778;SDS011;68121;52.404;5.318;2023-06-05T12:53:56;4.57;;;3.28;;
78778;SDS011;68121;52.404;5.318;2023-06-05T12:56:23;5.60;;;2.85;;
78778;SDS011;68121;52.404;5.318;2023-06-05T13:01:21;5.15;;;2.90;;
78778;SDS011;68121;52.404;5.318;2023-06-05T13:03:47;6.20;;;3.20;;
78778;SDS011;68121;52.404;5.318;2023-06-05T13:06:14;5.43;;;3.20;;
78778;SDS011;68121;52.404;5.318;2023-06-05T13:08:40;5.15;;;3.03;;
78778;SDS011;68121;52.404;5.318;2023-06-05T13:11:06;7.05;;;3.25;;
78778;SDS011;68121;52.404;5.318;2023-06-05T13:13:32;4.40;;;3.25;;
78778;SDS011;68121;52.404;5.318;2023-06-05T13:15:59;5.65;;;3.47;;
78778;SDS011;68121;52.404;5.318;2023-06-05T13:18:26;5.22;;;3.35;;
78778;SDS011;68121;52.404;5.318;2023-06-05T13:20:53;6.22;;;3.50;;
78778;SDS011;68121;52.404;5.318;2023-06-05T13:23:19;6.13;;;3.30;;
78778;SDS011;68121;52.404;5.318;2023-06-05T13:25:45;5.13;;;3.10;;
78778;SDS011;68121;52.404;5.318;2023-06-05T13:28:11;5.57;;;3.28;;
78778;SDS011;68121;52.404;5.318;2023-06-05T13:30:37;8.60;;;3.17;;
78778;SDS011;68121;52.404;5.318;2023-06-05T13:33:06;7.72;;;3.15;;
78778;SDS011;68121;52.404;5.318;2023-06-05T13:35:32;8.80;;;3.40;;
78778;SDS011;68121;52.404;5.318;2023-06-05T13:37:58;8.60;;;3.40;;
78778;SDS011;68121;52.404;5.318;2023-06-05T13:40:24;6.05;;;3.17;;
78778;SDS011;68121;52.404;5.318;2023-06-05T13:42:53;4.57;;;2.78;;
78778;SDS011;68121;52.404;5.318;2023-06-05T13:45:19;5.40;;;3.30;;
78778;SDS011;68121;52.404;5.318;2023-06-05T13:47:45;6.13;;;3.30;;
78778;SDS011;68121;52.404;5.318;2023-06-05T13:50:12;5.35;;;3.10;;
78778;SDS011;68121;52.404;5.318;2023-06-05T13:52:38;7.25;;;3.47;;
78778;SDS011;68121;52.404;5.318;2023-06-05T13:55:05;4.93;;;2.80;;
78778;SDS011;68121;52.404;5.318;2023-06-05T13:57:31;6.07;;;3.13;;
78778;SDS011;68121;52.404;5.318;2023-06-05T13:59:57;5.75;;;3.33;;
78778;SDS011;68121;52.404;5.318;2023-06-05T14:02:24;5.38;;;2.97;;
78778;SDS011;68121;52.404;5.318;2023-06-05T14:04:50;6.95;;;3.17;;
78778;SDS011;68121;52.404;5.318;2023-06-05T14:07:16;6.72;;;3.00;;
78778;SDS011;68121;52.404;5.318;2023-06-05T14:09:42;5.50;;;2.65;;
78778;SDS011;68121;52.404;5.318;2023-06-05T14:12:08;8.70;;;3.42;;
78778;SDS011;68121;52.404;5.318;2023-06-05T14:14:35;5.65;;;2.85;;
78778;SDS011;68121;52.404;5.318;2023-06-05T14:17:01;5.93;;;2.95;;
78778;SDS011;68121;52.404;5.318;2023-06-05T14:19:28;9.45;;;3.30;;
78778;SDS011;68121;52.404;5.318;2023-06-05T14:21:54;4.97;;;2.63;;
78778;SDS011;68121;52.404;5.318;2023-06-05T14:24:21;3.97;;;2.42;;
78778;SDS011;68121;52.404;5.318;2023-06-05T14:26:48;5.05;;;3.15;;
78778;SDS011;68121;52.404;5.318;2023-06-05T14:29:14;6.57;;;3.03;;
78778;SDS011;68121;52.404;5.318;2023-06-05T14:31:41;4.80;;;2.80;;
78778;SDS011;68121;52.404;5.318;2023-06-05T14:34:07;6.22;;;2.78;;
78778;SDS011;68121;52.404;5.318;2023-06-05T14:36:35;5.78;;;2.00;;
78778;SDS011;68121;52.404;5.318;2023-06-05T14:39:01;6.10;;;2.47;;
78778;SDS011;68121;52.404;5.318;2023-06-05T14:41:29;5.68;;;3.15;;
78778;SDS011;68121;52.404;5.318;2023-06-05T14:43:56;6.00;;;2.67;;
78778;SDS011;68121;52.404;5.318;2023-06-05T14:46:22;5.15;;;2.60;;
78778;SDS011;68121;52.404;5.318;2023-06-05T14:48:48;5.57;;;2.67;;
78778;SDS011;68121;52.404;5.318;2023-06-05T14:51:14;5.35;;;2.75;;
78778;SDS011;68121;52.404;5.318;2023-06-05T14:53:41;3.55;;;2.47;;
78778;SDS011;68121;52.404;5.318;2023-06-05T14:56:07;4.50;;;2.80;;
78778;SDS011;68121;52.404;5.318;2023-06-05T14:58:34;5.80;;;3.17;;
78778;SDS011;68121;52.404;5.318;2023-06-05T15:01:00;6.38;;;2.90;;
78778;SDS011;68121;52.404;5.318;2023-06-05T15:03:26;6.95;;;2.65;;
78778;SDS011;68121;52.404;5.318;2023-06-05T15:05:52;5.32;;;2.75;;
78778;SDS011;68121;52.404;5.318;2023-06-05T15:08:18;5.63;;;2.80;;
78778;SDS011;68121;52.404;5.318;2023-06-05T15:10:47;6.07;;;3.13;;
78778;SDS011;68121;52.404;5.318;2023-06-05T15:13:13;6.93;;;3.13;;
78778;SDS011;68121;52.404;5.318;2023-06-05T15:15:39;5.40;;;2.88;;
78778;SDS011;68121;52.404;5.318;2023-06-05T15:18:05;6.40;;;3.28;;
78778;SDS011;68121;52.404;5.318;2023-06-05T15:20:33;6.25;;;3.10;;
78778;SDS011;68121;52.404;5.318;2023-06-05T15:22:59;5.43;;;2.67;;
78778;SDS011;68121;52.404;5.318;2023-06-05T15:25:25;8.65;;;3.38;;
78778;SDS011;68121;52.404;5.318;2023-06-05T15:27:52;7.70;;;4.18;;
78778;SDS011;68121;52.404;5.318;2023-06-05T15:30:19;5.18;;;2.70;;